createdAt,value
2022-11-12T00:01:35.919Z,100.00
2022-11-12T00:04:21.488Z,100.00
2022-11-12T00:07:07.342Z,100.00
2022-11-12T00:09:53.065Z,100.00
2022-11-12T00:12:38.679Z,100.00
2022-11-12T00:15:24.454Z,100.00
2022-11-12T00:18:09.869Z,100.00
2022-11-12T00:20:55.407Z,100.00
2022-11-12T00:23:40.952Z,100.00
2022-11-12T00:26:26.487Z,100.00
2022-11-12T00:29:12.194Z,100.00
2022-11-12T00:31:57.769Z,100.00
2022-11-12T00:34:43.480Z,100.00
2022-11-12T00:37:29.120Z,100.00
2022-11-12T00:40:15.148Z,100.00
2022-11-12T00:43:00.487Z,100.00
2022-11-12T00:45:46.086Z,100.00
2022-11-12T00:48:31.895Z,100.00
2022-11-12T00:51:17.879Z,100.00
2022-11-12T00:54:03.275Z,100.00
2022-11-12T00:56:49.346Z,100.00
2022-11-12T00:59:34.706Z,100.00
2022-11-12T01:02:22.065Z,100.00
2022-11-12T01:05:07.874Z,100.00
2022-11-12T01:07:56.173Z,100.00
2022-11-12T01:10:41.566Z,100.00
2022-11-12T01:13:27.354Z,100.00
2022-11-12T01:16:17.105Z,100.00
2022-11-12T01:19:05.085Z,100.00
2022-11-12T01:21:50.833Z,100.00
2022-11-12T01:24:36.520Z,100.00
2022-11-12T01:27:22.191Z,100.00
2022-11-12T01:30:08.389Z,100.00
2022-11-12T01:32:53.764Z,100.00
2022-11-12T01:35:39.414Z,100.00
2022-11-12T01:38:25.308Z,100.00
2022-11-12T01:41:23.180Z,100.00
2022-11-12T01:44:20.057Z,100.00
2022-11-12T01:47:18.335Z,100.00
2022-11-12T01:50:29.123Z,100.00
2022-11-12T01:53:14.987Z,100.00
2022-11-12T01:56:02.263Z,100.00
2022-11-12T01:58:52.384Z,100.00
2022-11-12T02:01:38.737Z,100.00
2022-11-12T02:04:26.734Z,100.00
2022-11-12T02:07:12.639Z,100.00
2022-11-12T02:10:01.041Z,100.00
2022-11-12T02:13:06.160Z,100.00
2022-11-12T02:15:52.340Z,100.00
2022-11-12T02:18:38.024Z,100.00
2022-11-12T02:21:25.480Z,100.00
2022-11-12T02:24:11.506Z,100.00
2022-11-12T02:26:57.274Z,100.00
2022-11-12T02:29:46.262Z,100.00
2022-11-12T02:32:31.884Z,100.00
2022-11-12T02:35:17.579Z,100.00
2022-11-12T02:38:04.300Z,100.00
2022-11-12T02:40:49.902Z,100.00
2022-11-12T02:43:35.375Z,100.00
2022-11-12T02:46:21.298Z,100.00
2022-11-12T02:49:06.962Z,100.00
2022-11-12T02:51:52.658Z,100.00
2022-11-12T02:54:38.255Z,100.00
2022-11-12T02:57:24.291Z,100.00
2022-11-12T03:00:12.321Z,100.00
2022-11-12T03:03:01.236Z,100.00
2022-11-12T03:05:55.134Z,100.00
2022-11-12T03:08:40.717Z,100.00
2022-11-12T03:11:27.205Z,100.00
2022-11-12T03:14:12.594Z,100.00
2022-11-12T03:16:58.337Z,100.00
2022-11-12T03:19:44.109Z,100.00
2022-11-12T03:22:29.572Z,100.00
2022-11-12T03:25:15.320Z,100.00
2022-11-12T03:28:06.611Z,100.00
2022-11-12T03:30:57.690Z,100.00
2022-11-12T03:33:43.387Z,100.00
2022-11-12T03:36:28.972Z,100.00
2022-11-12T03:39:14.836Z,100.00
2022-11-12T03:42:00.438Z,100.00
2022-11-12T03:44:46.339Z,100.00
2022-11-12T03:47:31.728Z,100.00
2022-11-12T03:50:19.568Z,100.00
2022-11-12T03:53:05.101Z,100.00
2022-11-12T03:55:50.828Z,100.00
2022-11-12T03:58:36.333Z,100.00
2022-11-12T04:01:22.301Z,100.00
2022-11-12T04:04:07.689Z,100.00
2022-11-12T04:07:11.668Z,100.00
2022-11-12T04:09:57.329Z,100.00
2022-11-12T04:13:01.264Z,100.00
2022-11-12T04:16:06.876Z,100.00
2022-11-12T04:19:13.763Z,100.00
2022-11-12T04:22:04.222Z,100.00
2022-11-12T04:25:08.201Z,100.00
2022-11-12T04:27:53.990Z,100.00
2022-11-12T04:30:39.560Z,100.00
2022-11-12T04:33:25.160Z,100.00
2022-11-12T04:36:10.600Z,100.00
2022-11-12T04:38:56.208Z,100.00
2022-11-12T04:41:59.956Z,100.00
2022-11-12T04:45:02.247Z,100.00
2022-11-12T04:47:47.642Z,100.00
2022-11-12T04:50:33.972Z,100.00
2022-11-12T04:53:19.456Z,100.00
2022-11-12T04:56:05.051Z,100.00
2022-11-12T04:58:50.448Z,100.00
2022-11-12T05:01:35.913Z,100.00
2022-11-12T05:04:21.954Z,100.00
2022-11-12T05:07:07.887Z,100.00
2022-11-12T05:09:53.347Z,100.00
2022-11-12T05:12:39.178Z,100.00
2022-11-12T05:15:25.075Z,100.00
2022-11-12T05:18:10.715Z,100.00
2022-11-12T05:20:56.422Z,100.00
2022-11-12T05:23:42.181Z,100.00
2022-11-12T05:26:28.076Z,100.00
2022-11-12T05:29:14.368Z,100.00
2022-11-12T05:32:00.128Z,100.00
2022-11-12T05:34:45.545Z,100.00
2022-11-12T05:37:31.478Z,100.00
2022-11-12T05:40:17.115Z,100.00
2022-11-12T05:43:02.552Z,100.00
2022-11-12T05:45:48.142Z,100.00
2022-11-12T05:48:36.748Z,100.00
2022-11-12T05:51:22.295Z,100.00
2022-11-12T05:54:07.971Z,100.00
2022-11-12T05:56:53.616Z,100.00
2022-11-12T05:59:39.073Z,100.00
2022-11-12T06:02:24.798Z,100.00
2022-11-12T06:05:10.506Z,100.00
2022-11-12T06:07:56.242Z,100.00
2022-11-12T06:10:41.845Z,100.00
2022-11-12T06:13:28.069Z,100.00
2022-11-12T06:16:13.380Z,100.00
2022-11-12T06:18:59.265Z,100.00
2022-11-12T06:21:45.322Z,100.00
2022-11-12T06:24:34.986Z,100.00
2022-11-12T06:27:20.799Z,100.00
2022-11-12T06:30:07.803Z,100.00
2022-11-12T06:32:53.284Z,100.00
2022-11-12T06:35:42.748Z,100.00
2022-11-12T06:38:37.081Z,100.00
2022-11-12T06:41:22.628Z,100.00
2022-11-12T06:44:08.487Z,100.00
2022-11-12T06:46:54.186Z,100.00
2022-11-12T06:49:39.620Z,100.00
2022-11-12T06:52:25.247Z,100.00
2022-11-12T06:55:11.024Z,100.00
2022-11-12T06:57:56.748Z,100.00
2022-11-12T07:00:42.190Z,100.00
2022-11-12T07:03:27.877Z,100.00
2022-11-12T07:06:19.028Z,100.00
2022-11-12T07:09:05.399Z,100.00
2022-11-12T07:11:50.781Z,100.00
2022-11-12T07:14:36.404Z,100.00
2022-11-12T07:17:22.062Z,100.00
2022-11-12T07:20:08.576Z,100.00
2022-11-12T07:22:54.241Z,100.00
2022-11-12T07:25:39.845Z,100.00
2022-11-12T07:28:26.414Z,100.00
2022-11-12T07:31:13.888Z,100.00
2022-11-12T07:33:59.413Z,100.00
2022-11-12T07:36:44.987Z,100.00
2022-11-12T07:39:30.602Z,100.00
2022-11-12T07:42:16.417Z,100.00
2022-11-12T07:45:02.021Z,100.00
2022-11-12T07:47:47.696Z,100.00
2022-11-12T07:50:33.470Z,100.00
2022-11-12T07:53:19.387Z,100.00
2022-11-12T07:56:05.634Z,100.00
2022-11-12T07:58:52.155Z,100.00
2022-11-12T08:01:40.076Z,100.00
2022-11-12T08:04:25.627Z,100.00
2022-11-12T08:07:11.515Z,100.00
2022-11-12T08:09:56.944Z,100.00
2022-11-12T08:12:42.831Z,100.00
2022-11-12T08:15:28.384Z,100.00
2022-11-12T08:18:14.423Z,100.00
2022-11-12T08:21:05.315Z,100.00
2022-11-12T08:23:50.884Z,100.00
2022-11-12T08:26:36.273Z,100.00
2022-11-12T08:29:23.246Z,100.00
2022-11-12T08:32:08.863Z,100.00
2022-11-12T08:34:54.527Z,100.00
2022-11-12T08:37:40.189Z,100.00
2022-11-12T08:40:27.545Z,100.00
2022-11-12T08:43:13.060Z,100.00
2022-11-12T08:46:00.411Z,100.00
2022-11-12T08:48:45.859Z,100.00
2022-11-12T08:51:31.490Z,100.00
2022-11-12T08:54:17.228Z,100.00
2022-11-12T08:57:02.900Z,100.00
2022-11-12T08:59:48.619Z,100.00
2022-11-12T09:02:34.141Z,100.00
2022-11-12T09:05:20.218Z,100.00
2022-11-12T09:08:14.614Z,100.00
2022-11-12T09:11:00.026Z,100.00
2022-11-12T09:13:45.597Z,100.00
2022-11-12T09:16:31.260Z,100.00
2022-11-12T09:19:16.997Z,100.00
2022-11-12T09:22:04.274Z,100.00
2022-11-12T09:24:49.949Z,100.00
2022-11-12T09:27:35.633Z,100.00
2022-11-12T09:30:23.111Z,100.00
2022-11-12T09:33:08.498Z,100.00
2022-11-12T09:35:54.311Z,100.00
2022-11-12T09:38:39.716Z,100.00
2022-11-12T09:41:34.773Z,100.00
2022-11-12T09:44:24.062Z,100.00
2022-11-12T09:47:36.160Z,100.00
2022-11-12T09:50:28.979Z,100.00
2022-11-12T09:53:25.907Z,100.00
2022-11-12T09:56:13.824Z,100.00
2022-11-12T09:58:59.400Z,99.20
2022-11-12T10:02:15.756Z,100.00
2022-11-12T10:05:17.863Z,99.83
2022-11-12T10:08:37.400Z,99.81
2022-11-12T10:11:31.467Z,100.00
2022-11-12T10:14:52.629Z,100.00
2022-11-12T10:17:55.079Z,99.57
2022-11-12T10:20:52.287Z,99.41
2022-11-12T10:23:46.638Z,98.24
2022-11-12T10:26:33.545Z,97.77
2022-11-12T10:29:29.384Z,97.21
2022-11-12T10:32:16.676Z,97.41
2022-11-12T10:35:02.269Z,96.19
2022-11-12T10:37:53.790Z,95.81
2022-11-12T10:40:40.959Z,94.60
2022-11-12T10:43:26.875Z,94.74
2022-11-12T10:46:24.649Z,94.07
2022-11-12T10:49:16.293Z,95.08
2022-11-12T10:52:01.816Z,94.75
2022-11-12T10:54:52.436Z,94.52
2022-11-12T10:57:40.392Z,94.28
2022-11-12T11:00:26.406Z,94.53
2022-11-12T11:03:27.276Z,94.08
2022-11-12T11:06:22.876Z,95.66
2022-11-12T11:09:21.466Z,96.50
2022-11-12T11:12:23.538Z,97.56
2022-11-12T11:15:20.216Z,97.98
2022-11-12T11:18:10.673Z,97.79
2022-11-12T11:21:24.266Z,98.03
2022-11-12T11:24:21.663Z,96.59
2022-11-12T11:27:19.508Z,96.01
2022-11-12T11:30:12.216Z,97.32
2022-11-12T11:33:29.835Z,95.92
2022-11-12T11:36:22.848Z,96.52
2022-11-12T11:39:17.138Z,95.15
2022-11-12T11:42:02.939Z,95.01
2022-11-12T11:45:05.550Z,95.40
2022-11-12T11:48:01.670Z,95.97
2022-11-12T11:51:02.487Z,94.59
2022-11-12T11:54:01.825Z,93.53
2022-11-12T11:56:49.670Z,90.83
2022-11-12T11:59:54.474Z,89.09
2022-11-12T12:02:59.765Z,89.03
2022-11-12T12:06:00.328Z,86.76
2022-11-12T12:09:11.923Z,89.07
2022-11-12T12:12:21.645Z,88.70
2022-11-12T12:15:27.335Z,89.78
2022-11-12T12:18:28.762Z,89.51
2022-11-12T12:21:20.740Z,88.84
2022-11-12T12:24:24.559Z,88.89
2022-11-12T12:27:15.378Z,88.59
2022-11-12T12:30:13.760Z,88.64
2022-11-12T12:33:10.796Z,88.09
2022-11-12T12:36:05.086Z,87.60
2022-11-12T12:38:53.541Z,87.58
2022-11-12T12:42:01.883Z,87.32
2022-11-12T12:45:03.226Z,87.62
2022-11-12T12:47:50.126Z,87.46
2022-11-12T12:50:39.704Z,85.36
2022-11-12T12:53:25.055Z,85.66
2022-11-12T12:56:10.552Z,84.80
2022-11-12T12:58:57.981Z,83.73
2022-11-12T13:01:43.564Z,80.07
2022-11-12T13:04:47.775Z,77.96
2022-11-12T13:07:49.067Z,78.89
2022-11-12T13:10:44.441Z,77.35
2022-11-12T13:13:33.101Z,76.90
2022-11-12T13:16:49.494Z,77.49
2022-11-12T13:19:46.646Z,76.66
2022-11-12T13:22:32.365Z,78.13
2022-11-12T13:25:18.075Z,75.75
2022-11-12T13:28:06.319Z,75.40
2022-11-12T13:30:51.926Z,74.64
2022-11-12T13:33:38.254Z,74.79
2022-11-12T13:36:27.084Z,74.30
2022-11-12T13:39:16.575Z,74.14
2022-11-12T13:42:31.754Z,73.44
2022-11-12T13:45:20.831Z,73.38
2022-11-12T13:48:08.420Z,73.08
2022-11-12T13:50:59.620Z,73.92
2022-11-12T13:53:45.076Z,74.11
2022-11-12T13:56:33.031Z,73.17
2022-11-12T13:59:23.927Z,74.10
2022-11-12T14:02:20.959Z,73.14
2022-11-12T14:05:27.863Z,72.65
2022-11-12T14:08:34.427Z,73.13
2022-11-12T14:11:45.655Z,73.27
2022-11-12T14:14:51.833Z,73.60
2022-11-12T14:17:51.262Z,74.50
2022-11-12T14:20:39.573Z,73.85
2022-11-12T14:23:26.235Z,73.49
2022-11-12T14:26:13.166Z,72.89
2022-11-12T14:28:59.682Z,72.40
2022-11-12T14:31:46.350Z,73.43
2022-11-12T14:34:33.916Z,73.45
2022-11-12T14:37:52.155Z,73.93
2022-11-12T14:40:44.096Z,75.45
2022-11-12T14:43:37.597Z,75.57
2022-11-12T14:46:32.088Z,75.73
2022-11-12T14:49:43.954Z,75.96
2022-11-12T14:52:40.312Z,75.59
2022-11-12T14:55:32.614Z,75.74
2022-11-12T14:58:20.184Z,76.01
2022-11-12T15:01:44.985Z,75.93
2022-11-12T15:04:25.871Z,76.17
2022-11-12T15:07:24.458Z,77.37
2022-11-12T15:10:30.509Z,76.87
2022-11-12T15:13:18.733Z,77.60
2022-11-12T15:16:07.942Z,78.94
2022-11-12T15:19:06.713Z,77.99
2022-11-12T15:21:57.972Z,79.44
2022-11-12T15:24:45.807Z,79.20
2022-11-12T15:27:40.240Z,79.50
2022-11-12T15:30:32.055Z,80.21
2022-11-12T15:33:22.463Z,80.83
2022-11-12T15:36:16.608Z,82.34
2022-11-12T15:39:03.850Z,82.33
2022-11-12T15:42:01.383Z,82.97
2022-11-12T15:44:48.012Z,84.34
2022-11-12T15:47:33.793Z,85.29
2022-11-12T15:50:22.635Z,85.90
2022-11-12T15:53:08.795Z,86.14
2022-11-12T15:55:54.524Z,86.36
2022-11-12T15:58:40.456Z,87.27
2022-11-12T16:01:26.090Z,86.89
2022-11-12T16:04:12.726Z,87.88
2022-11-12T16:06:59.675Z,87.08
2022-11-12T16:09:45.089Z,88.04
2022-11-12T16:12:30.489Z,88.40
2022-11-12T16:15:23.094Z,89.14
2022-11-12T16:18:11.075Z,90.54
2022-11-12T16:20:56.773Z,90.34
2022-11-12T16:23:42.409Z,90.87
2022-11-12T16:26:32.221Z,92.23
2022-11-12T16:29:17.901Z,93.05
2022-11-12T16:32:04.440Z,92.75
2022-11-12T16:34:50.150Z,93.31
2022-11-12T16:37:38.344Z,92.88
2022-11-12T16:40:27.156Z,92.78
2022-11-12T16:43:12.544Z,94.10
2022-11-12T16:45:58.996Z,94.93
2022-11-12T16:48:44.433Z,95.53
2022-11-12T16:51:30.245Z,96.78
2022-11-12T16:54:15.967Z,96.92
2022-11-12T16:57:01.788Z,96.85
2022-11-12T16:59:47.326Z,97.92
2022-11-12T17:02:32.989Z,98.25
2022-11-12T17:05:21.032Z,99.60
2022-11-12T17:08:06.423Z,98.78
2022-11-12T17:10:52.121Z,99.26
2022-11-12T17:13:38.742Z,99.93
2022-11-12T17:16:24.454Z,100.00
2022-11-12T17:19:10.272Z,100.00
2022-11-12T17:21:56.192Z,99.72
2022-11-12T17:24:41.757Z,99.90
2022-11-12T17:27:28.271Z,100.00
2022-11-12T17:30:13.798Z,100.00
2022-11-12T17:32:59.893Z,100.00
2022-11-12T17:35:45.343Z,100.00
2022-11-12T17:38:31.016Z,100.00
2022-11-12T17:41:16.430Z,100.00
2022-11-12T17:44:03.055Z,100.00
2022-11-12T17:46:48.826Z,100.00
2022-11-12T17:49:34.469Z,100.00
2022-11-12T17:52:20.181Z,100.00
2022-11-12T17:55:06.045Z,100.00
2022-11-12T17:57:51.476Z,100.00
2022-11-12T18:00:38.182Z,100.00
2022-11-12T18:03:24.290Z,100.00
2022-11-12T18:06:12.637Z,100.00
2022-11-12T18:09:12.758Z,100.00
2022-11-12T18:11:58.804Z,100.00
2022-11-12T18:14:44.462Z,100.00
2022-11-12T18:17:29.981Z,100.00
2022-11-12T18:20:17.195Z,100.00
2022-11-12T18:23:02.928Z,100.00
2022-11-12T18:25:48.669Z,100.00
2022-11-12T18:28:34.559Z,100.00
2022-11-12T18:31:21.648Z,100.00
2022-11-12T18:34:10.205Z,100.00
2022-11-12T18:36:55.953Z,100.00
2022-11-12T18:39:41.723Z,100.00
2022-11-12T18:42:28.813Z,100.00
2022-11-12T18:45:14.622Z,100.00
2022-11-12T18:47:59.938Z,100.00
2022-11-12T18:50:45.672Z,100.00
2022-11-12T18:53:31.680Z,100.00
2022-11-12T18:56:19.389Z,100.00
2022-11-12T18:59:04.930Z,100.00
2022-11-12T19:01:51.242Z,100.00
2022-11-12T19:04:41.100Z,100.00
2022-11-12T19:07:29.736Z,100.00
2022-11-12T19:10:15.576Z,100.00
2022-11-12T19:13:03.852Z,100.00
2022-11-12T19:15:49.344Z,100.00
2022-11-12T19:18:34.975Z,100.00
2022-11-12T19:21:23.606Z,100.00
2022-11-12T19:24:09.314Z,100.00
2022-11-12T19:26:55.279Z,100.00
2022-11-12T19:29:40.671Z,100.00
2022-11-12T19:32:26.506Z,100.00
2022-11-12T19:35:11.872Z,100.00
2022-11-12T19:37:57.339Z,100.00
2022-11-12T19:40:43.328Z,100.00
2022-11-12T19:43:29.507Z,100.00
2022-11-12T19:46:16.161Z,100.00
2022-11-12T19:49:01.742Z,100.00
2022-11-12T19:51:47.509Z,100.00
2022-11-12T19:54:33.251Z,100.00
2022-11-12T19:57:18.839Z,100.00
2022-11-12T20:00:05.267Z,100.00
2022-11-12T20:02:50.955Z,100.00
2022-11-12T20:05:36.408Z,100.00
2022-11-12T20:08:23.905Z,100.00
2022-11-12T20:11:10.213Z,100.00
2022-11-12T20:13:56.006Z,100.00
2022-11-12T20:16:41.557Z,100.00
2022-11-12T20:19:27.702Z,100.00
2022-11-12T20:22:13.859Z,100.00
2022-11-12T20:24:59.617Z,100.00
2022-11-12T20:27:45.329Z,100.00
2022-11-12T20:30:30.974Z,100.00
2022-11-12T20:33:17.116Z,100.00
2022-11-12T20:36:07.740Z,100.00
2022-11-12T20:38:53.444Z,100.00
2022-11-12T20:41:39.198Z,100.00
2022-11-12T20:44:24.660Z,100.00
2022-11-12T20:47:10.343Z,100.00
2022-11-12T20:49:56.260Z,100.00
2022-11-12T20:52:41.583Z,100.00
2022-11-12T20:55:27.363Z,100.00
2022-11-12T20:58:13.103Z,100.00
2022-11-12T21:00:58.895Z,100.00
2022-11-12T21:03:45.361Z,100.00
2022-11-12T21:06:30.963Z,100.00
2022-11-12T21:09:16.535Z,100.00
2022-11-12T21:12:02.403Z,100.00
2022-11-12T21:14:50.550Z,100.00
2022-11-12T21:17:36.717Z,100.00
2022-11-12T21:20:22.630Z,100.00
2022-11-12T21:23:08.320Z,100.00
2022-11-12T21:25:54.294Z,100.00
2022-11-12T21:28:43.320Z,100.00
2022-11-12T21:31:30.091Z,100.00
2022-11-12T21:34:15.610Z,100.00
2022-11-12T21:37:01.349Z,100.00
2022-11-12T21:39:49.138Z,100.00
2022-11-12T21:42:34.965Z,100.00
2022-11-12T21:45:20.598Z,100.00
2022-11-12T21:48:06.189Z,100.00
2022-11-12T21:50:52.077Z,100.00
2022-11-12T21:53:38.461Z,100.00
2022-11-12T21:56:25.349Z,100.00
2022-11-12T21:59:11.025Z,100.00
2022-11-12T22:01:56.816Z,100.00
2022-11-12T22:04:42.563Z,100.00
2022-11-12T22:07:28.040Z,100.00
2022-11-12T22:10:13.798Z,100.00
2022-11-12T22:13:25.288Z,100.00
2022-11-12T22:16:06.845Z,100.00
2022-11-12T22:18:54.219Z,100.00
2022-11-12T22:21:40.250Z,100.00
2022-11-12T22:24:25.820Z,100.00
2022-11-12T22:27:11.475Z,100.00
2022-11-12T22:29:57.038Z,100.00
2022-11-12T22:32:42.519Z,100.00
2022-11-12T22:35:28.185Z,100.00
2022-11-12T22:38:13.989Z,100.00
2022-11-12T22:41:08.658Z,100.00
2022-11-12T22:43:56.571Z,100.00
2022-11-12T22:46:42.030Z,100.00
2022-11-12T22:49:27.893Z,100.00
2022-11-12T22:52:13.745Z,100.00
2022-11-12T22:54:59.179Z,100.00
2022-11-12T22:57:44.822Z,100.00
2022-11-12T23:00:31.912Z,100.00
2022-11-12T23:03:17.554Z,100.00
2022-11-12T23:06:05.956Z,100.00
2022-11-12T23:08:53.373Z,100.00
2022-11-12T23:11:38.801Z,100.00
2022-11-12T23:14:24.638Z,100.00
2022-11-12T23:17:10.292Z,100.00
2022-11-12T23:19:55.684Z,100.00
2022-11-12T23:22:41.377Z,100.00
2022-11-12T23:25:27.098Z,100.00
2022-11-12T23:28:12.629Z,100.00
2022-11-12T23:30:58.512Z,100.00
2022-11-12T23:33:53.344Z,100.00
2022-11-12T23:36:38.998Z,100.00
2022-11-12T23:39:24.625Z,100.00
2022-11-12T23:42:10.456Z,100.00
2022-11-12T23:44:56.063Z,100.00
2022-11-12T23:47:41.692Z,100.00
2022-11-12T23:50:27.474Z,100.00
2022-11-12T23:53:13.649Z,100.00
2022-11-12T23:55:59.919Z,100.00
2022-11-12T23:58:46.353Z,100.00
